sensor_id;sensor_type;location;lat;lon;timestamp;temperature;humidity
35305;DHT22;26433;48.034;-1.764;2022-11-15T06:02:29;13.60;98.60
35305;DHT22;26433;48.034;-1.764;2022-11-15T06:07:51;13.60;98.60
35305;DHT22;26433;48.034;-1.764;2022-11-15T06:13:12;13.60;98.70
35305;DHT22;26433;48.034;-1.764;2022-11-15T06:18:36;13.70;98.90
35305;DHT22;26433;48.034;-1.764;2022-11-15T06:23:58;13.60;99.20
35305;DHT22;26433;48.034;-1.764;2022-11-15T06:29:19;13.60;99.50
35305;DHT22;26433;48.034;-1.764;2022-11-15T06:34:42;13.60;99.70
35305;DHT22;26433;48.034;-1.764;2022-11-15T06:40:05;13.60;99.90
35305;DHT22;26433;48.034;-1.764;2022-11-15T06:45:27;13.60;99.90
35305;DHT22;26433;48.034;-1.764;2022-11-15T06:50:52;13.60;99.90
35305;DHT22;26433;48.034;-1.764;2022-11-15T06:56:13;13.70;99.90
35305;DHT22;26433;48.034;-1.764;2022-11-15T07:01:35;13.70;99.90
35305;DHT22;26433;48.034;-1.764;2022-11-15T07:06:58;13.80;99.90
35305;DHT22;26433;48.034;-1.764;2022-11-15T07:12:20;13.90;99.90
35305;DHT22;26433;48.034;-1.764;2022-11-15T07:17:42;14.00;99.90
35305;DHT22;26433;48.034;-1.764;2022-11-15T07:23:05;14.00;99.90
35305;DHT22;26433;48.034;-1.764;2022-11-15T07:28:27;14.10;99.90
35305;DHT22;26433;48.034;-1.764;2022-11-15T07:33:49;14.20;99.90
35305;DHT22;26433;48.034;-1.764;2022-11-15T07:39:12;14.20;99.90
35305;DHT22;26433;48.034;-1.764;2022-11-15T07:44:35;14.30;99.90
35305;DHT22;26433;48.034;-1.764;2022-11-15T07:49:57;14.30;99.90
35305;DHT22;26433;48.034;-1.764;2022-11-15T07:55:20;14.40;99.90
35305;DHT22;26433;48.034;-1.764;2022-11-15T08:00:42;14.40;99.90
35305;DHT22;26433;48.034;-1.764;2022-11-15T08:06:04;14.40;99.90
35305;DHT22;26433;48.034;-1.764;2022-11-15T08:11:28;14.40;99.90
35305;DHT22;26433;48.034;-1.764;2022-11-15T08:16:49;14.50;99.90
35305;DHT22;26433;48.034;-1.764;2022-11-15T08:22:13;14.50;99.90
35305;DHT22;26433;48.034;-1.764;2022-11-15T08:27:36;14.50;99.90
35305;DHT22;26433;48.034;-1.764;2022-11-15T08:32:58;14.60;99.90
35305;DHT22;26433;48.034;-1.764;2022-11-15T08:38:20;14.60;99.90
35305;DHT22;26433;48.034;-1.764;2022-11-15T08:43:43;14.70;99.90
35305;DHT22;26433;48.034;-1.764;2022-11-15T08:49:05;14.70;99.90
35305;DHT22;26433;48.034;-1.764;2022-11-15T08:54:27;14.70;99.90
35305;DHT22;26433;48.034;-1.764;2022-11-15T08:59:50;14.80;99.90
35305;DHT22;26433;48.034;-1.764;2022-11-15T09:05:12;14.80;99.90
35305;DHT22;26433;48.034;-1.764;2022-11-15T09:10:36;14.80;99.90
35305;DHT22;26433;48.034;-1.764;2022-11-15T09:16:00;14.80;99.90
35305;DHT22;26433;48.034;-1.764;2022-11-15T09:21:21;14.80;99.90
35305;DHT22;26433;48.034;-1.764;2022-11-15T09:26:43;14.80;99.90
35305;DHT22;26433;48.034;-1.764;2022-11-15T09:32:07;14.90;99.90
35305;DHT22;26433;48.034;-1.764;2022-11-15T09:37:28;14.90;99.90
35305;DHT22;26433;48.034;-1.764;2022-11-15T09:43:02;15.00;99.90
35305;DHT22;26433;48.034;-1.764;2022-11-15T09:48:48;15.00;99.90
35305;DHT22;26433;48.034;-1.764;2022-11-15T09:54:00;15.00;99.90
35305;DHT22;26433;48.034;-1.764;2022-11-15T09:59:44;15.10;99.90
35305;DHT22;26433;48.034;-1.764;2022-11-15T10:04:54;15.00;99.90
35305;DHT22;26433;48.034;-1.764;2022-11-15T10:10:00;15.10;99.90
35305;DHT22;26433;48.034;-1.764;2022-11-15T10:15:10;15.10;99.90
35305;DHT22;26433;48.034;-1.764;2022-11-15T10:20:20;15.10;99.90
35305;DHT22;26433;48.034;-1.764;2022-11-15T10:25:25;15.20;99.90
35305;DHT22;26433;48.034;-1.764;2022-11-15T10:30:32;15.20;99.90
35305;DHT22;26433;48.034;-1.764;2022-11-15T10:35:37;15.40;99.90
35305;DHT22;26433;48.034;-1.764;2022-11-15T10:40:41;15.50;99.90
35305;DHT22;26433;48.034;-1.764;2022-11-15T10:45:46;15.60;99.90
35305;DHT22;26433;48.034;-1.764;2022-11-15T10:50:54;15.80;99.90
35305;DHT22;26433;48.034;-1.764;2022-11-15T10:56:02;16.10;99.90
35305;DHT22;26433;48.034;-1.764;2022-11-15T11:01:12;16.20;99.90
35305;DHT22;26433;48.034;-1.764;2022-11-15T11:06:19;16.50;99.90
35305;DHT22;26433;48.034;-1.764;2022-11-15T11:11:24;16.70;99.90
35305;DHT22;26433;48.034;-1.764;2022-11-15T11:16:42;16.80;99.90
35305;DHT22;26433;48.034;-1.764;2022-11-15T11:21:54;17.10;99.90
35305;DHT22;26433;48.034;-1.764;2022-11-15T11:27:16;17.60;99.90
35305;DHT22;26433;48.034;-1.764;2022-11-15T11:32:40;18.10;99.90
35305;DHT22;26433;48.034;-1.764;2022-11-15T11:37:50;18.60;99.80
35305;DHT22;26433;48.034;-1.764;2022-11-15T11:42:59;19.00;98.80
35305;DHT22;26433;48.034;-1.764;2022-11-15T11:48:12;19.60;98.40
35305;DHT22;26433;48.034;-1.764;2022-11-15T11:53:25;19.00;98.40
35305;DHT22;26433;48.034;-1.764;2022-11-15T11:58:35;19.30;98.20
35305;DHT22;26433;48.034;-1.764;2022-11-15T12:03:43;19.70;97.30
35305;DHT22;26433;48.034;-1.764;2022-11-15T12:08:58;20.00;96.30
35305;DHT22;26433;48.034;-1.764;2022-11-15T12:14:03;19.80;95.50
35305;DHT22;26433;48.034;-1.764;2022-11-15T12:19:09;19.40;96.30
35305;DHT22;26433;48.034;-1.764;2022-11-15T12:24:17;19.10;96.90
35305;DHT22;26433;48.034;-1.764;2022-11-15T12:29:26;18.80;96.60
35305;DHT22;26433;48.034;-1.764;2022-11-15T12:34:43;18.60;96.70
35305;DHT22;26433;48.034;-1.764;2022-11-15T12:40:21;18.30;96.80
35305;DHT22;26433;48.034;-1.764;2022-11-15T12:45:28;18.20;96.80
35305;DHT22;26433;48.034;-1.764;2022-11-15T12:50:54;18.40;96.50
35305;DHT22;26433;48.034;-1.764;2022-11-15T12:56:21;18.50;95.20
35305;DHT22;26433;48.034;-1.764;2022-11-15T13:01:57;18.40;95.10
35305;DHT22;26433;48.034;-1.764;2022-11-15T13:07:03;18.40;95.00
35305;DHT22;26433;48.034;-1.764;2022-11-15T13:12:09;18.20;95.00
35305;DHT22;26433;48.034;-1.764;2022-11-15T13:17:28;17.90;94.70
35305;DHT22;26433;48.034;-1.764;2022-11-15T13:22:39;17.70;95.10
35305;DHT22;26433;48.034;-1.764;2022-11-15T13:27:58;17.80;94.00
35305;DHT22;26433;48.034;-1.764;2022-11-15T13:33:16;18.00;93.50
35305;DHT22;26433;48.034;-1.764;2022-11-15T13:38:26;18.00;92.60
35305;DHT22;26433;48.034;-1.764;2022-11-15T13:43:35;17.80;92.70
35305;DHT22;26433;48.034;-1.764;2022-11-15T13:48:40;17.40;93.70
35305;DHT22;26433;48.034;-1.764;2022-11-15T13:53:44;17.20;93.80
35305;DHT22;26433;48.034;-1.764;2022-11-15T13:58:51;17.20;94.40
35305;DHT22;26433;48.034;-1.764;2022-11-15T14:03:57;17.70;93.50
35305;DHT22;26433;48.034;-1.764;2022-11-15T14:14:49;18.10;90.70
35305;DHT22;26433;48.034;-1.764;2022-11-15T14:19:53;18.30;90.40
35305;DHT22;26433;48.034;-1.764;2022-11-15T14:25:15;18.40;88.40
35305;DHT22;26433;48.034;-1.764;2022-11-15T14:30:20;18.30;86.90
35305;DHT22;26433;48.034;-1.764;2022-11-15T14:35:24;18.40;87.40
35305;DHT22;26433;48.034;-1.764;2022-11-15T14:40:28;18.50;85.90
35305;DHT22;26433;48.034;-1.764;2022-11-15T14:45:33;18.60;85.40
35305;DHT22;26433;48.034;-1.764;2022-11-15T14:50:37;18.30;85.30
35305;DHT22;26433;48.034;-1.764;2022-11-15T14:55:41;18.00;86.60
35305;DHT22;26433;48.034;-1.764;2022-11-15T15:00:46;17.60;87.90
35305;DHT22;26433;48.034;-1.764;2022-11-15T15:05:50;17.30;88.40
35305;DHT22;26433;48.034;-1.764;2022-11-15T15:10:54;17.10;88.30
35305;DHT22;26433;48.034;-1.764;2022-11-15T15:16:01;16.90;88.00
35305;DHT22;26433;48.034;-1.764;2022-11-15T15:21:17;16.90;87.70
35305;DHT22;26433;48.034;-1.764;2022-11-15T15:26:22;16.60;87.40
35305;DHT22;26433;48.034;-1.764;2022-11-15T15:31:27;16.60;87.40
35305;DHT22;26433;48.034;-1.764;2022-11-15T15:36:31;16.50;87.40
35305;DHT22;26433;48.034;-1.764;2022-11-15T15:41:35;16.40;87.20
35305;DHT22;26433;48.034;-1.764;2022-11-15T15:46:39;16.30;87.70
35305;DHT22;26433;48.034;-1.764;2022-11-15T15:51:43;16.10;87.80
35305;DHT22;26433;48.034;-1.764;2022-11-15T15:56:47;16.00;88.10
35305;DHT22;26433;48.034;-1.764;2022-11-15T16:01:58;15.90;88.00
35305;DHT22;26433;48.034;-1.764;2022-11-15T16:07:02;15.80;88.50
35305;DHT22;26433;48.034;-1.764;2022-11-15T16:12:06;15.60;88.50
35305;DHT22;26433;48.034;-1.764;2022-11-15T16:17:18;15.50;88.70
35305;DHT22;26433;48.034;-1.764;2022-11-15T16:22:22;15.40;89.00
35305;DHT22;26433;48.034;-1.764;2022-11-15T16:27:25;15.30;89.40
35305;DHT22;26433;48.034;-1.764;2022-11-15T16:32:30;15.20;89.40
35305;DHT22;26433;48.034;-1.764;2022-11-15T16:37:35;15.20;89.20
35305;DHT22;26433;48.034;-1.764;2022-11-15T16:42:38;15.00;89.60
35305;DHT22;26433;48.034;-1.764;2022-11-15T16:47:43;14.80;90.10
35305;DHT22;26433;48.034;-1.764;2022-11-15T16:52:47;14.70;90.30
35305;DHT22;26433;48.034;-1.764;2022-11-15T16:57:51;14.60;90.40
35305;DHT22;26433;48.034;-1.764;2022-11-15T17:02:57;14.50;90.70
35305;DHT22;26433;48.034;-1.764;2022-11-15T17:08:00;14.40;90.50
35305;DHT22;26433;48.034;-1.764;2022-11-15T17:13:04;14.30;90.60
35305;DHT22;26433;48.034;-1.764;2022-11-15T17:18:10;14.30;90.60
35305;DHT22;26433;48.034;-1.764;2022-11-15T17:23:15;14.30;90.50
35305;DHT22;26433;48.034;-1.764;2022-11-15T17:28:18;14.20;90.50
35305;DHT22;26433;48.034;-1.764;2022-11-15T17:33:23;14.10;90.70
35305;DHT22;26433;48.034;-1.764;2022-11-15T17:38:27;13.90;90.90
35305;DHT22;26433;48.034;-1.764;2022-11-15T17:43:33;13.80;91.10
35305;DHT22;26433;48.034;-1.764;2022-11-15T17:48:38;13.70;91.00
35305;DHT22;26433;48.034;-1.764;2022-11-15T17:53:43;13.60;91.10
35305;DHT22;26433;48.034;-1.764;2022-11-15T17:58:48;13.60;91.10
35305;DHT22;26433;48.034;-1.764;2022-11-15T18:03:53;13.60;90.90
35305;DHT22;26433;48.034;-1.764;2022-11-15T18:08:57;13.60;91.00
35305;DHT22;26433;48.034;-1.764;2022-11-15T18:14:04;13.60;90.80
35305;DHT22;26433;48.034;-1.764;2022-11-15T18:19:09;13.50;90.80
35305;DHT22;26433;48.034;-1.764;2022-11-15T18:24:15;13.50;90.70
35305;DHT22;26433;48.034;-1.764;2022-11-15T18:29:19;13.50;90.70
35305;DHT22;26433;48.034;-1.764;2022-11-15T18:34:26;13.50;90.80
35305;DHT22;26433;48.034;-1.764;2022-11-15T18:39:34;13.50;90.70
35305;DHT22;26433;48.034;-1.764;2022-11-15T18:44:37;13.50;90.50
35305;DHT22;26433;48.034;-1.764;2022-11-15T18:49:43;13.40;90.50
35305;DHT22;26433;48.034;-1.764;2022-11-15T18:54:46;13.30;90.70
35305;DHT22;26433;48.034;-1.764;2022-11-15T18:59:50;13.20;90.80
35305;DHT22;26433;48.034;-1.764;2022-11-15T19:04:55;13.10;91.00
35305;DHT22;26433;48.034;-1.764;2022-11-15T19:09:58;13.00;91.10
35305;DHT22;26433;48.034;-1.764;2022-11-15T19:15:03;12.80;91.30
35305;DHT22;26433;48.034;-1.764;2022-11-15T19:20:13;12.70;91.50
35305;DHT22;26433;48.034;-1.764;2022-11-15T19:25:16;12.60;91.70
35305;DHT22;26433;48.034;-1.764;2022-11-15T19:30:20;12.50;91.80
35305;DHT22;26433;48.034;-1.764;2022-11-15T19:35:25;12.50;91.80
35305;DHT22;26433;48.034;-1.764;2022-11-15T19:40:29;12.50;91.70
35305;DHT22;26433;48.034;-1.764;2022-11-15T19:45:34;12.40;91.70
35305;DHT22;26433;48.034;-1.764;2022-11-15T19:50:39;12.30;91.70
35305;DHT22;26433;48.034;-1.764;2022-11-15T19:55:52;12.30;91.90
35305;DHT22;26433;48.034;-1.764;2022-11-15T20:01:00;12.30;91.80
35305;DHT22;26433;48.034;-1.764;2022-11-15T20:06:08;12.20;91.80
35305;DHT22;26433;48.034;-1.764;2022-11-15T20:11:13;12.20;92.00
35305;DHT22;26433;48.034;-1.764;2022-11-15T20:16:17;12.20;91.80
35305;DHT22;26433;48.034;-1.764;2022-11-15T20:21:22;12.20;92.00
35305;DHT22;26433;48.034;-1.764;2022-11-15T20:26:26;12.30;92.00
35305;DHT22;26433;48.034;-1.764;2022-11-15T20:31:30;12.30;91.90
35305;DHT22;26433;48.034;-1.764;2022-11-15T20:36:36;12.30;92.00
35305;DHT22;26433;48.034;-1.764;2022-11-15T20:41:39;12.40;92.10
35305;DHT22;26433;48.034;-1.764;2022-11-15T20:46:43;12.40;92.10
35305;DHT22;26433;48.034;-1.764;2022-11-15T20:51:48;12.30;92.30
35305;DHT22;26433;48.034;-1.764;2022-11-15T20:56:52;12.20;92.50
35305;DHT22;26433;48.034;-1.764;2022-11-15T21:01:56;12.20;92.60
35305;DHT22;26433;48.034;-1.764;2022-11-15T21:07:01;12.20;92.50
35305;DHT22;26433;48.034;-1.764;2022-11-15T21:12:05;12.20;92.40
35305;DHT22;26433;48.034;-1.764;2022-11-15T21:17:15;12.00;92.70
35305;DHT22;26433;48.034;-1.764;2022-11-15T21:22:20;11.90;92.80
35305;DHT22;26433;48.034;-1.764;2022-11-15T21:27:23;11.80;93.20
35305;DHT22;26433;48.034;-1.764;2022-11-15T21:32:27;11.70;93.40
35305;DHT22;26433;48.034;-1.764;2022-11-15T21:37:32;11.70;93.30
35305;DHT22;26433;48.034;-1.764;2022-11-15T21:42:36;11.60;93.40
35305;DHT22;26433;48.034;-1.764;2022-11-15T21:47:40;11.60;93.40
35305;DHT22;26433;48.034;-1.764;2022-11-15T21:52:49;11.50;93.50
35305;DHT22;26433;48.034;-1.764;2022-11-15T21:57:52;11.40;93.60
35305;DHT22;26433;48.034;-1.764;2022-11-15T22:02:56;11.30;93.80
35305;DHT22;26433;48.034;-1.764;2022-11-15T22:08:01;11.40;93.90
35305;DHT22;26433;48.034;-1.764;2022-11-15T22:13:05;11.30;93.80
35305;DHT22;26433;48.034;-1.764;2022-11-15T22:18:09;11.30;93.80
35305;DHT22;26433;48.034;-1.764;2022-11-15T22:23:14;11.30;93.80
35305;DHT22;26433;48.034;-1.764;2022-11-15T22:28:18;11.40;93.70
35305;DHT22;26433;48.034;-1.764;2022-11-15T22:33:23;11.30;93.70
35305;DHT22;26433;48.034;-1.764;2022-11-15T22:38:29;11.30;93.60
35305;DHT22;26433;48.034;-1.764;2022-11-15T22:43:34;11.20;93.90
35305;DHT22;26433;48.034;-1.764;2022-11-15T22:48:37;11.20;93.90
35305;DHT22;26433;48.034;-1.764;2022-11-15T22:53:43;11.20;93.90
35305;DHT22;26433;48.034;-1.764;2022-11-15T22:58:46;11.20;93.90
35305;DHT22;26433;48.034;-1.764;2022-11-15T23:03:50;11.10;94.00
35305;DHT22;26433;48.034;-1.764;2022-11-15T23:08:55;11.00;94.10
35305;DHT22;26433;48.034;-1.764;2022-11-15T23:13:59;11.00;94.40
35305;DHT22;26433;48.034;-1.764;2022-11-15T23:19:04;10.90;94.40
35305;DHT22;26433;48.034;-1.764;2022-11-15T23:24:11;10.30;94.40
35305;DHT22;26433;48.034;-1.764;2022-11-15T23:29:18;10.90;94.50
